Time;durP1;ratioP1;P1;durP2;ratioP2;P2;SDS_P1;SDS_P2;PMS_P1;PMS_P2;Temp;Humidity;BMP_temperature;BMP_pressure;BME280_temperature;BME280_humidity;BME280_pressure;Samples;Min_cycle;Max_cycle;Signal;HPM_P1;HPM_P2
2021/03/19 00:02:09;;;;;;;9.73;5.17;;;;;;;-0.09;100.00;101365.97;4978411;28;20323;-70
2021/03/19 00:04:34;;;;;;;10.17;5.90;;;;;;;0.08;100.00;101373.56;4965528;28;20204;-70
2021/03/19 00:07:00;;;;;;;7.63;4.40;;;;;;;0.12;100.00;101376.69;4981350;28;20225;-71
2021/03/19 00:09:25;;;;;;;8.40;4.93;;;;;;;0.20;100.00;101372.06;4982931;28;20241;-70
2021/03/19 00:11:51;;;;;;;10.97;5.33;;;;;;;0.30;100.00;101377.09;4942645;28;20229;-69
2021/03/19 00:14:17;;;;;;;8.90;4.97;;;;;;;0.20;100.00;101376.56;4965354;28;20193;-70
2021/03/19 00:16:43;;;;;;;7.77;4.77;;;;;;;0.24;100.00;101383.19;4980571;28;20225;-70
2021/03/19 00:19:11;;;;;;;8.90;4.50;;;;;;;0.29;100.00;101375.44;4981233;28;20549;-69
2021/03/19 00:21:37;;;;;;;8.77;4.80;;;;;;;0.32;100.00;101375.06;4980483;28;20233;-69
2021/03/19 00:24:05;;;;;;;9.73;4.60;;;;;;;0.32;100.00;101375.88;4964880;28;20192;-70
2021/03/19 00:26:30;;;;;;;9.53;4.90;;;;;;;0.35;100.00;101380.00;4938804;28;20288;-70
2021/03/19 00:28:56;;;;;;;6.80;3.90;;;;;;;0.29;100.00;101380.78;4933358;28;20670;-70
2021/03/19 00:31:21;;;;;;;8.30;4.47;;;;;;;0.34;100.00;101379.19;4963846;28;20220;-71
2021/03/19 00:33:50;;;;;;;6.97;4.13;;;;;;;0.32;100.00;101383.09;4996920;28;20193;-70
2021/03/19 00:36:15;;;;;;;7.17;4.30;;;;;;;0.29;100.00;101388.78;4980662;28;20730;-69
2021/03/19 00:38:41;;;;;;;6.17;4.20;;;;;;;0.30;100.00;101388.59;4965029;28;20253;-70
2021/03/19 00:41:09;;;;;;;5.53;3.80;;;;;;;0.26;100.00;101384.66;4980395;28;20663;-69
2021/03/19 00:43:37;;;;;;;6.00;3.90;;;;;;;0.17;100.00;101384.97;4963431;28;20663;-70
2021/03/19 00:46:04;;;;;;;8.37;4.13;;;;;;;0.21;100.00;101388.91;4964380;28;20252;-70
2021/03/19 00:48:30;;;;;;;6.13;3.60;;;;;;;0.19;100.00;101380.25;4949478;28;20196;-69
2021/03/19 00:50:56;;;;;;;4.83;3.53;;;;;;;-0.09;100.00;101381.97;4994674;28;20315;-70
2021/03/19 00:53:24;;;;;;;6.00;3.53;;;;;;;-0.10;100.00;101391.00;4964496;28;20182;-70
2021/03/19 00:55:52;;;;;;;5.73;3.60;;;;;;;-0.30;100.00;101402.41;4978835;28;20233;-70
2021/03/19 00:58:21;;;;;;;6.83;3.40;;;;;;;-0.29;100.00;101396.09;4983709;28;20204;-69
2021/03/19 01:00:46;;;;;;;7.23;3.50;;;;;;;-0.36;100.00;101397.81;4966175;28;20698;-69
2021/03/19 01:03:12;;;;;;;4.80;2.87;;;;;;;-0.45;100.00;101406.94;4967840;28;20189;-70
2021/03/19 01:05:43;;;;;;;4.90;3.30;;;;;;;-0.53;100.00;101403.50;4999855;28;20244;-69
2021/03/19 01:08:11;;;;;;;5.53;3.50;;;;;;;-0.58;100.00;101409.41;4964810;28;20663;-70
2021/03/19 01:10:49;;;;;;;5.43;3.20;;;;;;;-0.65;100.00;101408.47;4972039;28;20229;-70
2021/03/19 01:13:17;;;;;;;4.57;2.93;;;;;;;-0.58;100.00;101417.41;4972592;28;20690;-70
2021/03/19 01:15:42;;;;;;;5.17;3.53;;;;;;;-0.67;100.00;101429.16;4955531;28;20278;-70
2021/03/19 01:18:13;;;;;;;4.97;3.40;;;;;;;-0.67;100.00;101433.66;4987844;28;20683;-71
2021/03/19 01:20:42;;;;;;;6.00;3.30;;;;;;;-0.66;100.00;101432.66;4980838;28;20237;-70
2021/03/19 01:23:12;;;;;;;4.67;3.10;;;;;;;-0.60;100.00;101422.09;4960548;28;20954;-69
2021/03/19 01:25:40;;;;;;;4.83;3.40;;;;;;;-0.64;100.00;101414.63;4994928;28;20229;-70
2021/03/19 01:28:06;;;;;;;7.10;3.47;;;;;;;-0.63;100.00;101424.28;4954778;28;20567;-70
2021/03/19 01:30:34;;;;;;;5.87;3.53;;;;;;;-0.61;100.00;101422.28;4979950;28;20234;-71
2021/03/19 01:33:00;;;;;;;7.30;3.60;;;;;;;-0.53;100.00;101424.84;4980866;28;20193;-69
2021/03/19 01:35:25;;;;;;;6.67;3.57;;;;;;;-0.60;100.00;101429.28;4963801;28;20248;-69
2021/03/19 01:37:51;;;;;;;6.50;3.50;;;;;;;-0.64;100.00;101433.28;4982008;28;20691;-71
2021/03/19 01:40:18;;;;;;;4.03;3.23;;;;;;;-0.69;100.00;101425.03;4979749;28;20590;-70
2021/03/19 01:42:54;;;;;;;4.97;3.23;;;;;;;-0.70;100.00;101429.50;4980001;28;20624;-70
2021/03/19 01:45:56;;;;;;;4.20;2.67;;;;;;;-0.66;100.00;101430.84;4979835;28;20698;-69
2021/03/19 01:49:02;;;;;;;5.77;3.10;;;;;;;-0.77;100.00;101433.09;4979682;28;20193;-70
2021/03/19 01:52:05;;;;;;;6.17;2.90;;;;;;;-0.69;100.00;101435.69;4980025;28;20236;-70
2021/03/19 01:55:08;;;;;;;4.27;2.97;;;;;;;-0.83;100.00;101441.81;4983276;28;20197;-70
2021/03/19 01:58:11;;;;;;;3.67;2.47;;;;;;;-0.88;100.00;101441.53;4983268;28;20380;-69
2021/03/19 02:01:14;;;;;;;3.40;2.60;;;;;;;-0.89;100.00;101434.53;4981297;28;20232;-70
2021/03/19 02:04:17;;;;;;;4.63;2.80;;;;;;;-0.80;100.00;101448.63;4999113;28;20193;-70
2021/03/19 02:07:20;;;;;;;4.67;3.03;;;;;;;-0.87;100.00;101451.19;4983335;28;20361;-71
2021/03/19 02:10:23;;;;;;;4.60;2.80;;;;;;;-0.81;100.00;101453.13;4984871;28;20348;-70
2021/03/19 02:13:29;;;;;;;3.40;2.53;;;;;;;-0.94;100.00;101446.75;4979749;28;20258;-70
2021/03/19 02:16:32;;;;;;;3.70;2.57;;;;;;;-0.93;100.00;101451.91;4983065;28;20731;-70
2021/03/19 02:19:35;;;;;;;6.07;2.77;;;;;;;-0.94;100.00;101452.91;4984014;28;20884;-70
2021/03/19 02:22:38;;;;;;;4.50;2.60;;;;;;;-0.93;100.00;101443.91;4983453;28;20217;-70
2021/03/19 02:25:41;;;;;;;3.00;2.30;;;;;;;-1.03;100.00;101443.31;4984218;28;20193;-70
2021/03/19 02:28:45;;;;;;;3.77;2.57;;;;;;;-1.04;100.00;101447.00;4997831;28;20326;-70
2021/03/19 02:31:13;;;;;;;5.53;3.00;;;;;;;-1.19;100.00;101455.94;4983108;28;20225;-70
2021/03/19 02:33:54;;;;;;;3.10;2.57;;;;;;;-1.34;100.00;101454.22;4982978;28;20595;-70
2021/03/19 02:36:23;;;;;;;4.57;2.60;;;;;;;-1.16;100.00;101458.25;4983080;28;20256;-70
2021/03/19 02:38:51;;;;;;;5.33;3.63;;;;;;;-1.14;100.00;101461.56;4983021;28;20245;-70
2021/03/19 02:41:19;;;;;;;4.37;3.30;;;;;;;-0.93;100.00;101461.75;4967027;28;20221;-71
2021/03/19 02:43:45;;;;;;;3.97;2.80;;;;;;;-1.16;100.00;101464.41;4982145;28;20197;-70
2021/03/19 02:46:11;;;;;;;4.57;2.50;;;;;;;-1.18;100.00;101468.25;4949978;28;20220;-69
2021/03/19 02:48:38;;;;;;;6.97;2.60;;;;;;;-0.89;100.00;101468.38;4950978;28;20732;-69
2021/03/19 02:51:04;;;;;;;3.40;2.30;;;;;;;-0.82;100.00;101475.47;4950886;28;20225;-69
2021/03/19 02:53:30;;;;;;;5.50;2.60;;;;;;;-0.75;100.00;101468.41;4966240;28;20569;-70
2021/03/19 02:55:57;;;;;;;2.93;2.63;;;;;;;-0.93;100.00;101483.88;4982030;28;20268;-70
2021/03/19 02:58:23;;;;;;;3.87;2.63;;;;;;;-1.03;100.00;101480.63;4982539;28;20194;-69
2021/03/19 03:00:48;;;;;;;4.53;2.50;;;;;;;-1.07;100.00;101479.31;4963715;28;20252;-70
2021/03/19 03:03:14;;;;;;;3.63;2.70;;;;;;;-1.12;100.00;101487.03;4965441;28;20569;-73
2021/03/19 03:05:40;;;;;;;3.30;2.30;;;;;;;-1.10;100.00;101495.69;4960521;28;20621;-71
2021/03/19 03:08:06;;;;;;;3.43;2.40;;;;;;;-1.14;100.00;101494.38;4983575;28;21272;-71
2021/03/19 03:10:32;;;;;;;5.20;2.30;;;;;;;-1.20;100.00;101498.75;4982033;28;20617;-69
2021/03/19 03:12:57;;;;;;;4.80;2.40;;;;;;;-1.23;100.00;101499.09;4981572;28;20196;-70
2021/03/19 03:15:23;;;;;;;6.43;2.63;;;;;;;-1.27;100.00;101497.78;4965417;28;20228;-71
2021/03/19 03:17:49;;;;;;;2.93;2.47;;;;;;;-1.31;100.00;101501.81;4966475;28;20584;-72
2021/03/19 03:20:29;;;;;;;4.60;2.90;;;;;;;-1.19;100.00;101511.06;4965496;28;20202;-68
2021/03/19 03:22:57;;;;;;;3.17;2.40;;;;;;;-1.30;100.00;101503.47;4972122;28;20197;-72
2021/03/19 03:25:25;;;;;;;4.73;2.63;;;;;;;-1.35;100.00;101512.00;4997945;28;20224;-73
2021/03/19 03:27:51;;;;;;;5.07;2.57;;;;;;;-1.39;100.00;101505.34;4982524;28;20252;-71
2021/03/19 03:30:27;;;;;;;4.30;2.40;;;;;;;-1.44;100.00;101512.22;4965232;28;20224;-71
2021/03/19 03:32:55;;;;;;;3.63;2.47;;;;;;;-1.36;100.00;101512.16;4950048;28;20197;-70
2021/03/19 03:35:23;;;;;;;3.10;2.47;;;;;;;-1.41;100.00;101511.84;4980173;28;20190;-70
2021/03/19 03:37:49;;;;;;;3.20;2.67;;;;;;;-1.43;100.00;101513.84;4966345;28;20201;-70
2021/03/19 03:40:16;;;;;;;4.63;2.27;;;;;;;-1.56;100.00;101521.56;4976507;28;20205;-70
2021/03/19 03:42:42;;;;;;;4.67;2.60;;;;;;;-1.53;100.00;101520.44;4961669;28;20292;-70
2021/03/19 03:45:08;;;;;;;4.70;2.70;;;;;;;-1.57;100.00;101527.91;4944187;28;20242;-70
2021/03/19 03:47:36;;;;;;;4.67;2.53;;;;;;;-1.52;100.00;101525.56;4949420;28;20820;-70
2021/03/19 03:50:06;;;;;;;2.80;2.30;;;;;;;-1.45;100.00;101531.84;4960928;28;20217;-70
2021/03/19 03:52:33;;;;;;;5.93;2.27;;;;;;;-1.40;100.00;101529.50;4959420;28;20579;-70
2021/03/19 03:54:59;;;;;;;5.80;2.93;;;;;;;-1.52;100.00;101526.41;4934376;28;20185;-70
2021/03/19 03:57:25;;;;;;;6.53;3.50;;;;;;;-1.24;100.00;101529.41;4945228;28;20598;-71
2021/03/19 03:59:50;;;;;;;4.73;2.87;;;;;;;-1.20;100.00;101530.72;4948493;28;20580;-70
2021/03/19 04:02:22;;;;;;;5.30;2.90;;;;;;;-1.06;100.00;101534.28;4964100;28;20226;-70
2021/03/19 04:04:51;;;;;;;4.20;2.57;;;;;;;-1.02;100.00;101534.78;4976585;28;20301;-71
2021/03/19 04:07:16;;;;;;;4.67;2.80;;;;;;;-1.07;100.00;101537.94;4981639;28;20652;-70
2021/03/19 04:09:44;;;;;;;9.73;3.20;;;;;;;-1.02;100.00;101540.09;4981531;28;20210;-71
2021/03/19 04:12:10;;;;;;;5.20;2.77;;;;;;;-1.21;100.00;101537.03;4943401;28;20229;-70
2021/03/19 04:14:37;;;;;;;6.17;3.07;;;;;;;-1.31;100.00;101539.09;4949749;28;20190;-70
2021/03/19 04:17:10;;;;;;;3.83;2.87;;;;;;;-1.38;100.00;101543.47;4981760;28;20230;-69
2021/03/19 04:19:36;;;;;;;5.50;2.57;;;;;;;-1.28;100.00;101544.06;4981057;28;20206;-69
2021/03/19 04:22:04;;;;;;;5.57;2.50;;;;;;;-1.39;100.00;101534.66;4963696;28;20272;-72
2021/03/19 04:24:32;;;;;;;3.80;2.80;;;;;;;-1.47;100.00;101549.84;4965638;28;20679;-70
2021/03/19 04:26:58;;;;;;;4.63;3.20;;;;;;;-1.52;100.00;101546.84;4947813;28;20217;-70
2021/03/19 04:29:24;;;;;;;4.97;3.10;;;;;;;-1.32;100.00;101550.75;4947870;28;20220;-70
2021/03/19 04:31:52;;;;;;;7.67;3.40;;;;;;;-1.32;100.00;101542.75;4963333;28;20231;-72
2021/03/19 04:34:20;;;;;;;4.27;3.00;;;;;;;-1.23;100.00;101547.88;4948793;28;20191;-72
2021/03/19 04:36:46;;;;;;;6.30;3.50;;;;;;;-1.19;100.00;101549.19;4962252;28;20722;-70
2021/03/19 04:39:21;;;;;;;6.20;3.17;;;;;;;-1.22;100.00;101559.38;4963752;28;20348;-71
2021/03/19 04:41:48;;;;;;;6.23;4.17;;;;;;;-1.23;100.00;101553.19;4962175;28;20721;-71
2021/03/19 04:44:16;;;;;;;4.93;3.67;;;;;;;-1.19;100.00;101553.69;4965314;28;20193;-71
2021/03/19 04:46:42;;;;;;;3.67;3.20;;;;;;;-1.35;100.00;101562.59;4950756;28;20226;-72
2021/03/19 04:49:08;;;;;;;6.07;3.67;;;;;;;-1.39;100.00;101565.75;4981733;28;20702;-70
2021/03/19 04:51:33;;;;;;;6.53;3.67;;;;;;;-1.20;100.00;101568.03;4944092;28;20235;-72
2021/03/19 04:54:01;;;;;;;6.70;3.80;;;;;;;-1.04;100.00;101558.91;4982060;28;20189;-71
2021/03/19 04:56:27;;;;;;;6.97;4.07;;;;;;;-0.95;100.00;101563.19;4980318;28;20229;-70
2021/03/19 04:58:52;;;;;;;5.97;3.87;;;;;;;-1.19;100.00;101564.34;4948905;28;20304;-71
2021/03/19 05:01:18;;;;;;;6.30;3.80;;;;;;;-1.38;100.00;101560.25;4980299;28;20633;-72
2021/03/19 05:03:45;;;;;;;5.17;3.67;;;;;;;-1.28;100.00;101560.06;4964109;28;20189;-70
2021/03/19 05:06:11;;;;;;;5.10;3.50;;;;;;;-1.42;100.00;101563.47;4979387;28;20220;-72
2021/03/19 05:08:38;;;;;;;7.17;3.43;;;;;;;-1.51;100.00;101567.16;4949589;28;20225;-71
2021/03/19 05:11:04;;;;;;;5.57;4.00;;;;;;;-1.55;100.00;101568.53;4963950;28;20232;-71
2021/03/19 05:13:30;;;;;;;5.47;3.77;;;;;;;-1.21;100.00;101574.34;4964762;28;20193;-71
2021/03/19 05:15:58;;;;;;;4.27;3.87;;;;;;;-1.16;100.00;101581.63;4964518;28;20243;-72
2021/03/19 05:18:26;;;;;;;5.90;4.07;;;;;;;-1.19;100.00;101575.84;4979822;28;20256;-71
2021/03/19 05:20:52;;;;;;;8.33;3.97;;;;;;;-1.32;100.00;101574.72;4980573;28;20683;-71
2021/03/19 05:23:22;;;;;;;5.20;3.67;;;;;;;-1.48;100.00;101582.81;4964822;28;20331;-69
2021/03/19 05:25:47;;;;;;;5.30;3.77;;;;;;;-1.46;100.00;101584.28;4981415;28;20236;-69
2021/03/19 05:28:15;;;;;;;5.93;3.93;;;;;;;-1.64;100.00;101582.03;4966925;28;20185;-69
2021/03/19 05:30:46;;;;;;;6.20;4.23;;;;;;;-1.64;100.00;101585.53;4997867;28;20846;-70
2021/03/19 05:33:11;;;;;;;6.33;4.30;;;;;;;-1.70;100.00;101575.56;4983082;28;20198;-71
2021/03/19 05:35:37;;;;;;;6.17;4.23;;;;;;;-1.56;100.00;101588.16;4967643;28;20232;-69
2021/03/19 05:38:03;;;;;;;6.57;4.50;;;;;;;-1.30;100.00;101596.69;4986085;28;20213;-70
2021/03/19 05:40:38;;;;;;;8.23;4.47;;;;;;;-1.24;100.00;101601.34;5000027;28;20934;-70
2021/03/19 05:43:22;;;;;;;7.13;5.00;;;;;;;-1.27;100.00;101605.16;4967611;28;20217;-70
2021/03/19 05:46:00;;;;;;;7.10;4.57;;;;;;;-1.17;100.00;101612.94;4983593;28;20225;-70
2021/03/19 05:48:28;;;;;;;6.40;4.13;;;;;;;-1.42;100.00;101603.41;4968668;28;20205;-70
2021/03/19 05:50:55;;;;;;;5.80;4.20;;;;;;;-1.39;100.00;101617.22;4983696;28;20238;-70
2021/03/19 05:53:24;;;;;;;6.20;4.60;;;;;;;-1.31;100.00;101616.34;4966334;28;20202;-71
2021/03/19 05:55:52;;;;;;;6.27;4.40;;;;;;;-1.37;100.00;101619.72;4967695;28;20388;-70
2021/03/19 05:58:27;;;;;;;5.50;4.07;;;;;;;-1.34;100.00;101620.19;4968076;28;20206;-71
2021/03/19 06:00:56;;;;;;;4.97;4.00;;;;;;;-1.36;100.00;101618.69;4957428;28;20671;-71
2021/03/19 06:03:25;;;;;;;5.87;4.20;;;;;;;-1.22;100.00;101623.31;4983304;28;20324;-73
2021/03/19 06:05:59;;;;;;;10.10;4.33;;;;;;;-1.06;100.00;101622.22;4967438;28;20236;-70
2021/03/19 06:08:39;;;;;;;9.70;7.00;;;;;;;-0.85;100.00;101633.09;4964608;28;20188;-71
2021/03/19 06:11:15;;;;;;;11.43;7.07;;;;;;;-0.90;100.00;101619.44;4983585;28;20328;-73
2021/03/19 06:13:44;;;;;;;9.27;7.20;;;;;;;-0.90;100.00;101627.44;4982243;28;20193;-70
2021/03/19 06:16:19;;;;;;;8.20;5.70;;;;;;;-0.71;100.00;101625.19;4967163;28;20280;-73
2021/03/19 06:18:46;;;;;;;9.03;6.03;;;;;;;-0.48;100.00;101638.53;4984027;28;21157;-71
2021/03/19 06:21:18;;;;;;;8.10;5.50;;;;;;;-0.41;100.00;101631.47;4984062;28;20325;-71
2021/03/19 06:24:11;;;;;;;10.80;6.50;;;;;;;-0.19;100.00;101621.59;4982681;28;20667;-71
2021/03/19 06:26:38;;;;;;;6.80;5.83;;;;;;;0.02;100.00;101616.44;4963158;28;20221;-69
2021/03/19 06:29:13;;;;;;;7.97;5.97;;;;;;;0.12;100.00;101630.34;4997607;28;20579;-73
2021/03/19 06:31:40;;;;;;;8.57;6.13;;;;;;;0.37;100.00;101635.25;4950124;28;20837;-69
2021/03/19 06:34:14;;;;;;;9.30;6.87;;;;;;;0.66;100.00;101633.41;4984514;28;20324;-68
2021/03/19 06:37:15;;;;;;;10.23;7.10;;;;;;;0.75;100.00;101634.94;4967164;28;20724;-71
2021/03/19 06:39:49;;;;;;;9.20;8.30;;;;;;;1.07;100.00;101629.22;4905508;29;20450;-75
2021/03/19 06:42:18;;;;;;;8.70;6.60;;;;;;;1.13;100.00;101629.28;4939794;28;20224;-70
2021/03/19 06:44:44;;;;;;;10.10;6.50;;;;;;;1.20;100.00;101628.34;4983142;28;20197;-71
2021/03/19 06:47:16;;;;;;;9.97;6.10;;;;;;;1.18;100.00;101627.69;4965204;28;20715;-72
2021/03/19 06:49:52;;;;;;;9.03;6.13;;;;;;;1.23;100.00;101636.00;4966021;28;20292;-69
2021/03/19 06:52:29;;;;;;;8.00;5.67;;;;;;;1.34;100.00;101632.84;4980888;28;20297;-69
2021/03/19 06:55:02;;;;;;;6.53;5.70;;;;;;;1.50;100.00;101640.59;4969816;28;20199;-70
2021/03/19 06:57:42;;;;;;;8.47;5.97;;;;;;;1.53;100.00;101638.38;4950906;28;20688;-71
2021/03/19 07:00:12;;;;;;;8.20;6.00;;;;;;;1.70;100.00;101647.00;4977943;28;20234;-72
2021/03/19 07:02:53;;;;;;;8.33;5.67;;;;;;;1.81;100.00;101646.47;4989479;28;20307;-70
2021/03/19 07:05:24;;;;;;;6.83;5.47;;;;;;;1.90;100.00;101645.34;4976095;28;20200;-70
2021/03/19 07:08:13;;;;;;;6.47;5.57;;;;;;;1.92;100.00;101653.00;4960979;28;20281;-71
2021/03/19 07:10:48;;;;;;;7.20;5.10;;;;;;;2.08;100.00;101660.75;4975710;28;20228;-70
2021/03/19 07:13:38;;;;;;;8.00;5.20;;;;;;;1.99;100.00;101666.44;4959408;28;20221;-70
2021/03/19 07:16:10;;;;;;;6.57;5.40;;;;;;;1.99;100.00;101666.44;4970724;28;20233;-72
2021/03/19 07:18:49;;;;;;;7.23;5.40;;;;;;;2.10;100.00;101669.41;4965146;28;20266;-69
2021/03/19 07:21:21;;;;;;;6.07;4.93;;;;;;;2.25;100.00;101675.50;4975291;28;20711;-70
2021/03/19 07:23:59;;;;;;;6.97;5.07;;;;;;;2.20;100.00;101664.56;4959083;28;20198;-70
2021/03/19 07:26:32;;;;;;;8.20;5.23;;;;;;;2.21;100.00;101671.56;4962294;28;20229;-72
2021/03/19 07:29:19;;;;;;;7.27;5.47;;;;;;;2.32;100.00;101665.69;4949456;28;20779;-71
2021/03/19 07:31:47;;;;;;;6.10;5.50;;;;;;;2.31;100.00;101677.44;4967665;28;20320;-71
2021/03/19 07:34:34;;;;;;;9.20;5.53;;;;;;;2.06;100.00;101678.03;4981999;28;20201;-71
2021/03/19 07:37:25;;;;;;;7.97;5.37;;;;;;;2.12;100.00;101671.91;4979517;28;20236;-70
2021/03/19 07:40:14;;;;;;;8.13;5.17;;;;;;;2.16;100.00;101674.03;4981940;28;20237;-69
2021/03/19 07:42:40;;;;;;;6.87;4.87;;;;;;;2.21;100.00;101678.78;5001725;28;20286;-71
2021/03/19 07:45:33;;;;;;;8.30;6.20;;;;;;;2.20;100.00;101675.28;4984657;28;20181;-70
2021/03/19 07:48:19;;;;;;;9.53;6.37;;;;;;;2.37;100.00;101682.00;4947585;28;20207;-71
2021/03/19 07:50:47;;;;;;;9.87;6.93;;;;;;;2.58;100.00;101681.94;4949511;28;20258;-70
2021/03/19 07:53:35;;;;;;;9.57;6.20;;;;;;;2.40;100.00;101686.97;4949506;28;20209;-71
2021/03/19 07:56:10;;;;;;;8.57;6.07;;;;;;;2.41;100.00;101689.47;4982416;28;20237;-70
2021/03/19 07:58:59;;;;;;;10.23;5.90;;;;;;;2.46;100.00;101692.38;4968890;28;20197;-72
2021/03/19 08:01:39;;;;;;;7.83;6.30;;;;;;;2.65;100.00;101698.91;4970944;28;20220;-71
2021/03/19 08:04:22;;;;;;;9.60;6.07;;;;;;;2.81;100.00;101713.69;4969349;28;20197;-72
2021/03/19 08:06:55;;;;;;;9.73;5.77;;;;;;;2.69;100.00;101709.91;4951705;28;20221;-70
2021/03/19 08:10:06;;;;;;;7.23;5.97;;;;;;;2.73;100.00;101710.34;4962927;28;21068;-71
2021/03/19 08:12:56;;;;;;;9.10;5.97;;;;;;;3.01;100.00;101721.88;4902763;29;20228;-71
2021/03/19 08:15:40;;;;;;;7.73;6.07;;;;;;;3.01;100.00;101714.63;4979759;28;20202;-71
2021/03/19 08:18:19;;;;;;;7.17;5.33;;;;;;;3.20;100.00;101719.28;4966501;28;20190;-72
2021/03/19 08:21:04;;;;;;;7.17;5.73;;;;;;;3.23;100.00;101726.94;4948756;28;20222;-70
2021/03/19 08:24:09;;;;;;;8.70;6.07;;;;;;;3.22;100.00;101722.56;4947272;28;20201;-69
2021/03/19 08:27:00;;;;;;;8.03;5.73;;;;;;;3.24;100.00;101720.53;4948238;28;20212;-71
2021/03/19 08:29:42;;;;;;;6.90;4.90;;;;;;;3.41;100.00;101732.56;4941062;28;20908;-70
2021/03/19 08:32:29;;;;;;;8.23;5.77;;;;;;;3.61;100.00;101735.16;4955772;28;20232;-71
2021/03/19 08:35:12;;;;;;;8.03;5.20;;;;;;;3.55;100.00;101732.44;4980814;28;20727;-70
2021/03/19 08:37:53;;;;;;;10.47;5.10;;;;;;;3.66;100.00;101727.31;4988106;28;21121;-70
2021/03/19 08:40:41;;;;;;;9.57;5.33;;;;;;;3.79;100.00;101730.06;4983048;28;20216;-70
2021/03/19 08:43:24;;;;;;;8.47;4.93;;;;;;;3.60;100.00;101729.97;4976647;28;20216;-72
2021/03/19 08:46:07;;;;;;;8.57;5.40;;;;;;;3.62;100.00;101731.44;4964937;28;21068;-72
2021/03/19 08:48:45;;;;;;;7.43;4.73;;;;;;;3.46;100.00;101737.16;4964391;28;20251;-71
2021/03/19 08:51:31;;;;;;;8.33;5.07;;;;;;;3.46;100.00;101739.00;4969705;28;20224;-71
2021/03/19 08:54:06;;;;;;;7.63;4.80;;;;;;;3.37;100.00;101742.91;5002538;28;20217;-71
2021/03/19 08:56:32;;;;;;;6.60;4.60;;;;;;;3.42;100.00;101751.19;4983701;28;20234;-71
2021/03/19 08:58:57;;;;;;;8.37;5.17;;;;;;;3.41;100.00;101765.63;4966939;28;20208;-71
2021/03/19 09:01:51;;;;;;;6.83;4.67;;;;;;;3.44;100.00;101758.03;4972606;28;20228;-70
2021/03/19 09:04:19;;;;;;;8.27;5.00;;;;;;;3.60;100.00;101763.03;5005910;28;20646;-71
2021/03/19 09:07:29;;;;;;;7.50;4.80;;;;;;;3.59;100.00;101774.81;4969915;28;20224;-71
2021/03/19 09:10:02;;;;;;;8.00;5.17;;;;;;;3.79;100.00;101775.72;4913691;29;20704;-71
2021/03/19 09:12:32;;;;;;;6.23;4.87;;;;;;;3.94;100.00;101779.09;4882808;29;20239;-70
2021/03/19 09:15:18;;;;;;;5.87;5.00;;;;;;;3.99;100.00;101779.28;4915322;28;20244;-71
2021/03/19 09:17:48;;;;;;;6.40;4.70;;;;;;;3.90;100.00;101777.81;4987256;28;20236;-70
2021/03/19 09:20:31;;;;;;;6.07;4.77;;;;;;;4.01;100.00;101779.91;5001022;28;20213;-71
2021/03/19 09:23:18;;;;;;;6.63;4.60;;;;;;;4.03;100.00;101777.84;4966083;28;20271;-71
2021/03/19 09:25:53;;;;;;;6.97;4.23;;;;;;;4.07;100.00;101789.88;4990126;28;20316;-70
2021/03/19 09:28:30;;;;;;;6.40;4.47;;;;;;;4.02;100.00;101792.34;4989922;28;20232;-71
2021/03/19 09:31:08;;;;;;;6.20;4.73;;;;;;;4.19;100.00;101782.84;4988847;28;20225;-71
2021/03/19 09:33:43;;;;;;;7.43;4.27;;;;;;;4.12;100.00;101793.63;4986515;28;20228;-72
2021/03/19 09:36:46;;;;;;;5.87;4.00;;;;;;;4.20;100.00;101794.25;4981620;28;20233;-71
2021/03/19 09:39:49;;;;;;;4.80;4.17;;;;;;;4.45;100.00;101794.47;4980839;28;20224;-72
2021/03/19 09:42:17;;;;;;;5.43;3.43;;;;;;;4.35;100.00;101800.25;4964851;28;20217;-70
2021/03/19 09:44:47;;;;;;;5.80;3.80;;;;;;;4.43;100.00;101797.41;5000825;28;20204;-71
2021/03/19 09:47:16;;;;;;;7.07;4.00;;;;;;;4.51;100.00;101804.44;4983521;28;20218;-72
2021/03/19 09:49:41;;;;;;;5.97;3.70;;;;;;;4.57;100.00;101801.75;4968313;28;20216;-71
2021/03/19 09:52:18;;;;;;;5.07;3.50;;;;;;;4.79;100.00;101803.22;4966857;28;20225;-71
2021/03/19 09:54:47;;;;;;;4.37;3.33;;;;;;;5.07;100.00;101804.63;4984771;28;20621;-71
2021/03/19 09:57:37;;;;;;;4.40;3.13;;;;;;;4.64;98.69;101794.50;4966012;28;20364;-71
2021/03/19 10:00:37;;;;;;;4.33;3.20;;;;;;;4.78;100.00;101798.84;4984258;28;21266;-72
2021/03/19 10:03:12;;;;;;;5.47;3.03;;;;;;;4.88;98.51;101799.28;4971903;28;20308;-72
2021/03/19 10:05:40;;;;;;;5.83;3.10;;;;;;;4.79;96.25;101814.78;4951266;28;21536;-71
2021/03/19 10:08:06;;;;;;;3.83;2.70;;;;;;;4.87;96.77;101800.31;4968157;28;20196;-71
2021/03/19 10:10:40;;;;;;;3.43;2.50;;;;;;;5.17;94.45;101805.06;4983125;28;20711;-72
2021/03/19 10:13:06;;;;;;;3.33;2.77;;;;;;;5.28;96.11;101799.03;4983098;28;21565;-73
2021/03/19 10:15:38;;;;;;;4.90;2.67;;;;;;;5.29;92.99;101796.09;4982629;28;21696;-70
2021/03/19 10:18:07;;;;;;;6.50;2.60;;;;;;;5.42;94.27;101806.84;4983944;28;20218;-70
2021/03/19 10:20:36;;;;;;;3.27;2.60;;;;;;;5.62;91.08;101800.34;4983533;28;20236;-72
2021/03/19 10:23:07;;;;;;;3.07;2.30;;;;;;;5.51;91.28;101816.38;4982936;28;20198;-70
2021/03/19 10:25:43;;;;;;;2.50;2.20;;;;;;;5.69;90.46;101816.53;4995227;28;20313;-70
2021/03/19 10:28:11;;;;;;;6.33;2.23;;;;;;;5.79;88.23;101815.91;4968239;28;20192;-69
2021/03/19 10:30:54;;;;;;;5.00;2.50;;;;;;;5.92;87.08;101805.06;4980333;28;20234;-69
2021/03/19 10:33:41;;;;;;;5.63;2.07;;;;;;;6.06;87.98;101812.03;4982720;28;20201;-70
2021/03/19 10:36:14;;;;;;;2.70;1.77;;;;;;;5.70;81.81;101815.50;4982535;28;20234;-72
2021/03/19 10:38:41;;;;;;;2.57;1.70;;;;;;;5.47;81.90;101821.34;4951480;28;20220;-70
2021/03/19 10:41:19;;;;;;;2.07;1.50;;;;;;;5.44;82.00;101821.78;4983125;28;20316;-71
2021/03/19 10:44:11;;;;;;;3.00;1.90;;;;;;;5.25;85.24;101826.38;4982008;28;20667;-70
2021/03/19 10:46:39;;;;;;;2.20;2.00;;;;;;;5.29;85.38;101819.53;4964110;28;20226;-71
2021/03/19 10:49:11;;;;;;;2.23;2.03;;;;;;;5.29;87.01;101839.19;4984520;28;20604;-69
2021/03/19 10:51:41;;;;;;;2.70;1.60;;;;;;;5.28;85.23;101826.78;4965834;28;20241;-71
2021/03/19 10:54:23;;;;;;;3.40;2.20;;;;;;;5.45;85.73;101828.81;4967029;28;20202;-72
2021/03/19 10:56:51;;;;;;;3.10;1.50;;;;;;;5.55;85.33;101822.97;4982019;28;20232;-70
2021/03/19 10:59:28;;;;;;;3.83;1.90;;;;;;;5.59;83.55;101826.94;4967240;28;20217;-69
2021/03/19 11:01:54;;;;;;;4.23;1.80;;;;;;;5.88;82.65;101814.63;4981688;28;20233;-70
2021/03/19 11:04:30;;;;;;;2.73;1.77;;;;;;;5.93;80.84;101817.47;4950821;28;20190;-70
2021/03/19 11:06:56;;;;;;;2.17;1.70;;;;;;;5.92;79.48;101818.53;4998892;28;20641;-70
2021/03/19 11:09:23;;;;;;;4.77;1.70;;;;;;;5.80;78.72;101822.94;4984478;28;20275;-70
2021/03/19 11:11:59;;;;;;;1.60;1.30;;;;;;;5.75;77.93;101822.75;4965494;28;20737;-69
2021/03/19 11:14:30;;;;;;;1.63;1.40;;;;;;;5.73;78.83;101820.47;4982818;28;20247;-69
2021/03/19 11:17:14;;;;;;;1.60;1.40;;;;;;;5.84;79.13;101823.34;4981896;28;20263;-70
2021/03/19 11:19:57;;;;;;;3.03;1.40;;;;;;;6.05;76.95;101810.41;4982518;28;20645;-70
2021/03/19 11:22:23;;;;;;;1.17;1.00;;;;;;;6.19;77.55;101811.97;4965465;28;20221;-71
2021/03/19 11:24:48;;;;;;;1.30;1.10;;;;;;;6.10;74.03;101818.69;4982553;28;20248;-72
2021/03/19 11:27:22;;;;;;;2.67;1.10;;;;;;;6.01;74.24;101824.53;4981724;28;20287;-72
2021/03/19 11:29:48;;;;;;;1.10;1.00;;;;;;;6.01;75.55;101825.34;4982178;28;20218;-72
2021/03/19 11:32:13;;;;;;;2.30;1.20;;;;;;;5.77;74.70;101836.03;4981747;28;20287;-71
2021/03/19 11:34:47;;;;;;;1.20;1.10;;;;;;;5.99;76.16;101832.81;4983713;28;21591;-71
2021/03/19 11:37:24;;;;;;;2.37;1.30;;;;;;;6.43;73.83;101822.00;4997013;28;20719;-71
2021/03/19 11:39:54;;;;;;;1.20;1.10;;;;;;;6.50;70.97;101822.78;4983392;28;20217;-70
2021/03/19 11:42:22;;;;;;;2.00;1.10;;;;;;;6.49;69.48;101829.25;4980576;28;20841;-70
2021/03/19 11:44:53;;;;;;;1.60;1.17;;;;;;;6.45;69.07;101822.63;4961664;28;20219;-71
2021/03/19 11:47:27;;;;;;;3.13;1.30;;;;;;;6.58;69.24;101826.88;4965646;28;20221;-69
2021/03/19 11:50:05;;;;;;;1.20;1.10;;;;;;;6.37;70.69;101825.56;4983561;28;20275;-69
2021/03/19 11:52:30;;;;;;;3.23;1.30;;;;;;;6.50;71.92;101829.00;4949708;28;21043;-69
2021/03/19 11:54:56;;;;;;;2.67;1.00;;;;;;;6.70;69.95;101830.56;4967790;28;20256;-73